createdAt,value
2023-02-24T00:02:01.809Z,12.36
2023-02-24T00:04:41.737Z,12.35
2023-02-24T00:07:13.029Z,12.35
2023-02-24T00:09:39.796Z,12.35
2023-02-24T00:12:12.894Z,12.33
2023-02-24T00:14:42.221Z,12.34
2023-02-24T00:17:09.679Z,12.34
2023-02-24T00:19:37.367Z,12.33
2023-02-24T00:22:05.514Z,12.34
2023-02-24T00:24:31.980Z,12.34
2023-02-24T00:27:01.380Z,12.33
2023-02-24T00:29:29.896Z,12.33
2023-02-24T00:32:00.933Z,12.33
2023-02-24T00:34:29.637Z,12.34
2023-02-24T00:36:56.142Z,12.31
2023-02-24T00:39:30.390Z,12.28
2023-02-24T00:42:06.506Z,12.26
2023-02-24T00:44:44.742Z,12.22
2023-02-24T00:47:12.397Z,12.21
2023-02-24T00:49:42.175Z,12.18
2023-02-24T00:52:16.322Z,12.14
2023-02-24T00:54:45.133Z,12.12
2023-02-24T00:57:12.464Z,12.08
2023-02-24T00:59:39.269Z,12.08
2023-02-24T01:02:07.149Z,12.06
2023-02-24T01:04:33.985Z,12.04
2023-02-24T01:07:01.900Z,12.02
2023-02-24T01:09:30.829Z,11.99
2023-02-24T01:12:16.746Z,11.97
2023-02-24T01:14:47.698Z,11.94
2023-02-24T01:17:16.219Z,11.94
2023-02-24T01:19:44.252Z,11.92
2023-02-24T01:22:14.932Z,11.90
2023-02-24T01:24:43.441Z,11.89
2023-02-24T01:27:12.565Z,11.87
2023-02-24T01:29:39.689Z,11.87
2023-02-24T01:32:07.928Z,11.86
2023-02-24T01:34:35.184Z,11.86
2023-02-24T01:37:01.867Z,11.87
2023-02-24T01:39:28.512Z,11.85
2023-02-24T01:41:54.904Z,11.85
2023-02-24T01:44:25.280Z,11.84
2023-02-24T01:46:53.155Z,11.82
2023-02-24T01:49:29.593Z,11.80
2023-02-24T01:52:02.219Z,11.80
2023-02-24T01:54:33.706Z,11.81
2023-02-24T01:57:00.546Z,11.82
2023-02-24T01:59:30.390Z,11.81
2023-02-24T02:02:07.022Z,11.81
2023-02-24T02:04:42.883Z,11.78
2023-02-24T02:07:12.749Z,11.78
2023-02-24T02:09:42.287Z,11.76
2023-02-24T02:12:11.960Z,11.75
2023-02-24T02:14:43.861Z,11.73
2023-02-24T02:17:21.540Z,11.72
2023-02-24T02:20:16.228Z,11.70
2023-02-24T02:23:13.771Z,11.69
2023-02-24T02:26:18.808Z,11.70
2023-02-24T02:29:07.411Z,11.69
2023-02-24T02:31:46.640Z,11.66
2023-02-24T02:34:19.360Z,11.64
2023-02-24T02:37:15.182Z,11.59
2023-02-24T02:40:00.914Z,11.57
2023-02-24T02:42:38.148Z,11.54
2023-02-24T02:45:08.446Z,11.50
2023-02-24T02:47:47.136Z,11.46
2023-02-24T02:50:37.358Z,11.44
2023-02-24T02:53:12.079Z,11.43
2023-02-24T02:55:49.097Z,11.41
2023-02-24T02:58:23.459Z,11.38
2023-02-24T03:01:02.863Z,11.37
2023-02-24T03:03:33.710Z,11.37
2023-02-24T03:06:06.591Z,11.35
2023-02-24T03:08:38.637Z,11.33
2023-02-24T03:11:09.810Z,11.31
2023-02-24T03:13:41.158Z,11.30
2023-02-24T03:16:10.554Z,11.31
2023-02-24T03:18:44.898Z,11.29
2023-02-24T03:21:24.493Z,11.29
2023-02-24T03:23:52.482Z,11.30
2023-02-24T03:26:33.322Z,11.26
2023-02-24T03:29:23.956Z,11.27
2023-02-24T03:32:09.400Z,11.24
2023-02-24T03:35:07.310Z,11.22
2023-02-24T03:37:34.098Z,11.24
2023-02-24T03:40:14.777Z,11.24
2023-02-24T03:42:45.421Z,11.20
2023-02-24T03:45:12.550Z,11.18
2023-02-24T03:47:40.599Z,11.13
2023-02-24T03:50:13.833Z,11.10
2023-02-24T03:53:08.810Z,11.05
2023-02-24T03:55:39.441Z,11.04
2023-02-24T03:58:18.238Z,11.01
2023-02-24T04:00:52.825Z,10.98
2023-02-24T04:03:38.666Z,10.92
2023-02-24T04:06:28.188Z,10.88
2023-02-24T04:09:18.696Z,10.85
2023-02-24T04:11:56.307Z,10.84
2023-02-24T04:14:30.921Z,10.81
2023-02-24T04:17:08.894Z,10.77
2023-02-24T04:19:40.511Z,10.80
2023-02-24T04:22:10.756Z,10.79
2023-02-24T04:24:39.690Z,10.79
2023-02-24T04:27:08.192Z,10.79
2023-02-24T04:29:39.553Z,10.80
2023-02-24T04:32:08.959Z,10.83
2023-02-24T04:37:23.036Z,10.84
2023-02-24T04:39:53.315Z,10.86
2023-02-24T04:42:22.453Z,10.89
2023-02-24T04:44:48.834Z,10.90
2023-02-24T04:47:15.694Z,10.91
2023-02-24T04:49:42.076Z,10.93
2023-02-24T04:52:12.007Z,10.93
2023-02-24T04:54:38.596Z,10.95
2023-02-24T04:57:11.554Z,10.94
2023-02-24T04:59:39.103Z,10.94
2023-02-24T05:02:09.324Z,10.95
2023-02-24T05:04:38.777Z,10.95
2023-02-24T05:07:06.473Z,10.95
2023-02-24T05:09:33.372Z,10.94
2023-02-24T05:12:00.294Z,10.93
2023-02-24T05:14:26.702Z,10.92
2023-02-24T05:16:53.165Z,10.92
2023-02-24T05:19:39.934Z,10.92
2023-02-24T05:22:13.108Z,10.92
2023-02-24T05:24:41.019Z,10.92
2023-02-24T05:27:08.611Z,10.91
2023-02-24T05:29:42.318Z,10.89
2023-02-24T05:32:09.277Z,10.90
2023-02-24T05:34:35.897Z,10.88
2023-02-24T05:37:10.192Z,10.87
2023-02-24T05:39:38.346Z,10.85
2023-02-24T05:42:06.845Z,10.82
2023-02-24T05:44:35.383Z,10.80
2023-02-24T05:47:05.790Z,10.81
2023-02-24T05:49:34.805Z,10.82
2023-02-24T05:52:09.813Z,10.78
2023-02-24T05:54:42.098Z,10.77
2023-02-24T05:57:15.238Z,10.77
2023-02-24T05:59:42.405Z,10.78
2023-02-24T06:02:16.024Z,10.79
2023-02-24T06:05:11.699Z,10.80
2023-02-24T06:07:38.054Z,10.81
2023-02-24T06:10:15.939Z,10.81
2023-02-24T06:12:42.267Z,10.81
2023-02-24T06:15:09.070Z,10.83
2023-02-24T06:17:35.528Z,10.84
2023-02-24T06:20:02.851Z,10.84
2023-02-24T06:22:29.534Z,10.84
2023-02-24T06:24:56.734Z,10.85
2023-02-24T06:27:24.552Z,10.85
2023-02-24T06:29:54.123Z,10.84
2023-02-24T06:32:24.080Z,10.81
2023-02-24T06:34:51.860Z,10.80
2023-02-24T06:37:18.594Z,10.79
2023-02-24T06:39:53.991Z,10.77
2023-02-24T06:42:20.410Z,10.77
2023-02-24T06:44:46.990Z,10.76
2023-02-24T06:47:16.263Z,10.74
2023-02-24T06:49:42.763Z,10.73
2023-02-24T06:52:11.150Z,10.71
2023-02-24T06:54:37.736Z,10.70
2023-02-24T06:57:04.714Z,10.69
2023-02-24T06:59:32.298Z,10.70
2023-02-24T07:02:01.733Z,10.70
2023-02-24T07:04:29.113Z,10.72
2023-02-24T07:06:58.451Z,10.71
2023-02-24T07:09:26.624Z,10.72
2023-02-24T07:11:56.313Z,10.73
2023-02-24T07:14:25.459Z,10.73
2023-02-24T07:16:54.361Z,10.76
2023-02-24T07:19:24.215Z,10.77
2023-02-24T07:21:52.512Z,10.77
2023-02-24T07:24:24.972Z,10.78
2023-02-24T07:26:59.896Z,10.76
2023-02-24T07:29:28.204Z,10.76
2023-02-24T07:31:55.222Z,10.76
2023-02-24T07:34:25.355Z,10.74
2023-02-24T07:36:53.036Z,10.75
2023-02-24T07:39:20.590Z,10.75
2023-02-24T07:41:49.737Z,10.77
2023-02-24T07:44:21.337Z,10.76
2023-02-24T07:46:49.203Z,10.78
2023-02-24T07:49:25.813Z,10.75
2023-02-24T07:51:57.734Z,10.77
2023-02-24T07:54:27.258Z,10.77
2023-02-24T07:56:57.156Z,10.77
2023-02-24T07:59:29.848Z,10.75
2023-02-24T08:01:57.838Z,10.74
2023-02-24T08:04:30.055Z,10.75
2023-02-24T08:06:59.210Z,10.77
2023-02-24T08:09:44.636Z,10.77
2023-02-24T08:12:18.240Z,10.80
2023-02-24T08:14:50.760Z,10.80
2023-02-24T08:17:24.213Z,10.79
2023-02-24T08:20:15.472Z,10.82
2023-02-24T08:22:52.042Z,10.86
2023-02-24T08:25:22.705Z,10.87
2023-02-24T08:28:12.510Z,10.87
2023-02-24T08:30:44.903Z,10.91
2023-02-24T08:33:17.690Z,10.92
2023-02-24T08:35:45.466Z,10.93
2023-02-24T08:38:20.755Z,10.93
2023-02-24T08:40:50.678Z,10.94
2023-02-24T08:43:39.733Z,10.93
2023-02-24T08:46:18.389Z,10.93
2023-02-24T08:48:56.817Z,10.95
2023-02-24T08:51:35.171Z,10.94
2023-02-24T08:54:11.329Z,10.98
2023-02-24T08:56:43.445Z,11.01
2023-02-24T08:59:29.418Z,11.01
2023-02-24T09:02:18.029Z,11.03
2023-02-24T09:04:58.851Z,11.04
2023-02-24T09:07:36.535Z,11.04
2023-02-24T09:10:11.436Z,11.06
2023-02-24T09:12:41.176Z,11.07
2023-02-24T09:15:26.048Z,11.07
2023-02-24T09:18:08.083Z,11.09
2023-02-24T09:20:53.112Z,11.11
2023-02-24T09:23:20.581Z,11.13
2023-02-24T09:25:51.940Z,11.13
2023-02-24T09:28:24.440Z,11.13
2023-02-24T09:30:56.746Z,11.15
2023-02-24T09:33:54.736Z,11.15
2023-02-24T09:36:44.745Z,11.19
2023-02-24T09:39:14.526Z,11.20
2023-02-24T09:42:06.956Z,11.23
2023-02-24T09:44:44.577Z,11.24
2023-02-24T09:47:19.898Z,11.25
2023-02-24T09:49:56.182Z,11.26
2023-02-24T09:52:40.288Z,11.27
2023-02-24T09:56:05.485Z,11.23
2023-02-24T09:58:43.008Z,11.27
2023-02-24T10:01:33.747Z,11.23
2023-02-24T10:04:22.983Z,11.22
2023-02-24T10:06:57.621Z,11.20
2023-02-24T10:09:35.081Z,11.16
2023-02-24T10:12:20.388Z,11.13
2023-02-24T10:15:19.585Z,11.12
2023-02-24T10:17:55.648Z,11.09
2023-02-24T10:20:40.253Z,11.05
2023-02-24T10:23:29.566Z,11.03
2023-02-24T10:26:07.474Z,10.98
2023-02-24T10:28:57.162Z,10.93
2023-02-24T10:31:58.257Z,10.89
2023-02-24T10:34:31.696Z,10.84
2023-02-24T10:37:07.702Z,10.79
2023-02-24T10:39:36.527Z,10.76
2023-02-24T10:42:21.991Z,10.73
2023-02-24T10:45:02.692Z,10.71
2023-02-24T10:47:31.137Z,10.69
2023-02-24T10:50:00.937Z,10.68
2023-02-24T10:52:50.693Z,10.66
2023-02-24T10:55:45.721Z,10.66
2023-02-24T10:58:46.809Z,10.64
2023-02-24T11:01:40.789Z,10.64
2023-02-24T11:04:33.439Z,10.67
2023-02-24T11:07:12.267Z,10.70
2023-02-24T11:09:54.147Z,10.74
2023-02-24T11:12:42.106Z,10.80
2023-02-24T11:15:53.721Z,10.82
2023-02-24T11:18:23.946Z,10.87
2023-02-24T11:20:59.367Z,10.87
2023-02-24T11:23:43.816Z,10.86
2023-02-24T11:26:41.233Z,10.82
2023-02-24T11:29:26.122Z,10.85
2023-02-24T11:32:22.064Z,10.78
2023-02-24T11:34:52.985Z,10.77
2023-02-24T11:37:28.422Z,10.72
2023-02-24T11:40:18.657Z,10.73
2023-02-24T11:43:14.020Z,10.75
2023-02-24T11:45:46.257Z,10.76
2023-02-24T11:48:19.502Z,10.77
2023-02-24T11:50:50.516Z,10.79
2023-02-24T11:53:41.764Z,10.77
2023-02-24T11:56:18.130Z,10.76
2023-02-24T11:59:12.938Z,10.75
2023-02-24T12:02:05.530Z,10.75
2023-02-24T12:04:41.012Z,10.75
2023-02-24T12:07:32.987Z,10.70
2023-02-24T12:10:16.185Z,10.72
2023-02-24T12:16:05.173Z,10.71
2023-02-24T12:18:39.280Z,10.71
2023-02-24T12:21:24.828Z,10.70
2023-02-24T12:23:55.955Z,10.72
2023-02-24T12:26:42.478Z,10.72
2023-02-24T12:29:32.792Z,10.68
2023-02-24T12:33:00.996Z,10.65
2023-02-24T12:35:44.505Z,10.63
2023-02-24T12:38:51.983Z,10.59
2023-02-24T12:41:51.003Z,10.53
2023-02-24T12:44:26.518Z,10.52
2023-02-24T12:47:31.419Z,10.46
2023-02-24T12:50:09.826Z,10.44
2023-02-24T12:52:39.545Z,10.45
2023-02-24T12:55:48.349Z,10.43
2023-02-24T12:58:34.746Z,10.44
2023-02-24T13:01:07.196Z,10.47
2023-02-24T13:03:57.954Z,10.44
2023-02-24T13:07:15.508Z,10.44
2023-02-24T13:10:06.168Z,10.45
2023-02-24T13:12:42.913Z,10.45
2023-02-24T13:15:31.277Z,10.38
2023-02-24T13:17:58.536Z,10.36
2023-02-24T13:20:34.341Z,10.34
2023-02-24T13:23:05.755Z,10.32
2023-02-24T13:25:38.407Z,10.29
2023-02-24T13:28:21.328Z,10.28
2023-02-24T13:31:10.430Z,10.24
2023-02-24T13:33:42.524Z,10.22
2023-02-24T13:36:17.432Z,10.19
2023-02-24T13:38:46.748Z,10.19
2023-02-24T13:41:28.185Z,10.14
2023-02-24T13:44:00.373Z,10.13
2023-02-24T13:46:30.508Z,10.11
2023-02-24T13:49:15.674Z,10.11
2023-02-24T13:52:03.374Z,10.10
2023-02-24T13:55:05.201Z,10.06
2023-02-24T13:57:45.734Z,10.04
2023-02-24T14:00:30.214Z,10.04
2023-02-24T14:02:57.424Z,10.07
2023-02-24T14:05:28.318Z,10.04
2023-02-24T14:07:56.363Z,10.04
2023-02-24T14:10:29.962Z,10.04
2023-02-24T14:13:17.605Z,10.01
2023-02-24T14:15:46.325Z,10.04
2023-02-24T14:18:19.400Z,10.01
2023-02-24T14:20:45.805Z,10.02
2023-02-24T14:23:20.540Z,9.99
2023-02-24T14:25:46.873Z,10.02
2023-02-24T14:28:22.236Z,10.00
2023-02-24T14:30:55.598Z,10.01
2023-02-24T14:33:35.354Z,10.00
2023-02-24T14:36:04.018Z,10.02
2023-02-24T14:39:02.331Z,10.00
2023-02-24T14:41:28.686Z,10.04
2023-02-24T14:43:56.319Z,10.04
2023-02-24T14:46:25.179Z,10.07
2023-02-24T14:48:54.438Z,10.09
2023-02-24T14:51:28.476Z,10.10
2023-02-24T14:54:01.596Z,10.13
2023-02-24T14:56:32.118Z,10.15
2023-02-24T14:59:06.081Z,10.18
2023-02-24T15:01:40.866Z,10.21
2023-02-24T15:04:14.504Z,10.25
2023-02-24T15:06:43.721Z,10.29
2023-02-24T15:09:21.006Z,10.33
2023-02-24T15:11:49.029Z,10.38
2023-02-24T15:14:23.012Z,10.40
2023-02-24T15:16:54.089Z,10.45
2023-02-24T15:19:26.256Z,10.47
2023-02-24T15:21:54.009Z,10.52
2023-02-24T15:24:33.303Z,10.53
2023-02-24T15:27:02.644Z,10.59
2023-02-24T15:29:31.619Z,10.63
2023-02-24T15:32:01.153Z,10.67
2023-02-24T15:34:35.016Z,10.68
2023-02-24T15:37:12.776Z,10.73
2023-02-24T15:39:42.359Z,10.76
2023-02-24T15:42:17.221Z,10.77
2023-02-24T15:44:58.439Z,10.78
2023-02-24T15:47:28.659Z,10.82
2023-02-24T15:49:55.400Z,10.84
2023-02-24T15:52:24.416Z,10.85
2023-02-24T15:54:51.439Z,10.87
2023-02-24T15:57:18.569Z,10.89
2023-02-24T15:59:45.039Z,10.92
2023-02-24T16:02:22.226Z,10.90
2023-02-24T16:04:50.380Z,10.93
2023-02-24T16:07:20.807Z,10.93
2023-02-24T16:09:50.329Z,10.96
2023-02-24T16:12:21.775Z,10.98
2023-02-24T16:14:55.966Z,11.00
2023-02-24T16:17:31.755Z,11.01
2023-02-24T16:19:59.121Z,11.04
2023-02-24T16:22:26.556Z,11.03
2023-02-24T16:24:53.125Z,11.04
2023-02-24T16:27:22.078Z,11.05
2023-02-24T16:29:49.644Z,11.05
2023-02-24T16:32:16.464Z,11.05
2023-02-24T16:34:44.377Z,11.05
2023-02-24T16:37:23.292Z,11.04
2023-02-24T16:39:50.117Z,11.05
2023-02-24T16:42:17.485Z,11.07
2023-02-24T16:44:44.134Z,11.07
2023-02-24T16:47:17.341Z,11.06
2023-02-24T16:49:44.104Z,11.07
2023-02-24T16:52:13.538Z,11.06
2023-02-24T16:54:40.338Z,11.06
2023-02-24T16:57:06.943Z,11.07
2023-02-24T16:59:33.539Z,11.05
2023-02-24T17:02:02.091Z,11.06
2023-02-24T17:04:29.051Z,11.05
2023-02-24T17:06:55.367Z,11.07
2023-02-24T17:09:22.288Z,11.08
2023-02-24T17:11:48.660Z,11.06
2023-02-24T17:14:20.164Z,11.03
2023-02-24T17:16:47.067Z,11.04
2023-02-24T17:19:14.086Z,11.05
2023-02-24T17:21:44.544Z,11.03
2023-02-24T17:24:18.988Z,11.03
2023-02-24T17:26:46.264Z,11.08
2023-02-24T17:29:13.777Z,11.09
2023-02-24T17:31:40.744Z,11.10
2023-02-24T17:34:07.522Z,11.13
2023-02-24T17:36:34.019Z,11.15
2023-02-24T17:39:01.141Z,11.16
2023-02-24T17:41:27.723Z,11.19
2023-02-24T17:43:54.596Z,11.23
2023-02-24T17:46:21.923Z,11.27
2023-02-24T17:48:48.537Z,11.28
2023-02-24T17:51:20.299Z,11.29
2023-02-24T17:53:46.694Z,11.33
2023-02-24T17:56:13.058Z,11.36
2023-02-24T17:58:40.559Z,11.38
2023-02-24T18:01:06.994Z,11.40
2023-02-24T18:03:35.418Z,11.41
2023-02-24T18:06:09.846Z,11.41
2023-02-24T18:08:37.617Z,11.43
2023-02-24T18:11:05.541Z,11.45
2023-02-24T18:13:32.734Z,11.47
2023-02-24T18:15:59.932Z,11.47
2023-02-24T18:18:30.056Z,11.48
2023-02-24T18:21:01.775Z,11.50
2023-02-24T18:23:29.122Z,11.52
2023-02-24T18:25:55.702Z,11.53
2023-02-24T18:28:22.053Z,11.54
2023-02-24T18:30:48.765Z,11.54
2023-02-24T18:33:15.574Z,11.55
2023-02-24T18:35:42.240Z,11.58
2023-02-24T18:38:08.895Z,11.57
2023-02-24T18:40:35.215Z,11.58
2023-02-24T18:43:01.804Z,11.57
2023-02-24T18:45:29.022Z,11.52
2023-02-24T18:47:55.405Z,11.45
2023-02-24T18:50:25.386Z,11.38
2023-02-24T18:52:52.005Z,11.30
2023-02-24T18:55:19.759Z,11.23
2023-02-24T18:57:46.992Z,11.18
2023-02-24T19:00:14.606Z,11.13
2023-02-24T19:02:41.219Z,11.09
2023-02-24T19:05:08.245Z,11.07
2023-02-24T19:07:34.586Z,11.05
2023-02-24T19:10:00.919Z,11.02
2023-02-24T19:12:27.341Z,11.01
2023-02-24T19:14:53.899Z,11.00
2023-02-24T19:17:20.355Z,11.01
2023-02-24T19:19:46.806Z,11.00
2023-02-24T19:22:13.145Z,10.99
2023-02-24T19:24:39.558Z,10.96
2023-02-24T19:27:05.943Z,10.93
2023-02-24T19:29:32.234Z,10.93
2023-02-24T19:31:59.020Z,10.91
2023-02-24T19:34:25.524Z,10.88
2023-02-24T19:36:51.916Z,10.87
2023-02-24T19:39:18.442Z,10.85
2023-02-24T19:41:45.170Z,10.83
2023-02-24T19:44:11.992Z,10.82
2023-02-24T19:46:39.083Z,10.81
2023-02-24T19:49:05.933Z,10.81
2023-02-24T19:51:32.691Z,10.81
2023-02-24T19:54:03.101Z,10.82
2023-02-24T19:56:34.551Z,10.81
2023-02-24T19:59:01.806Z,10.81
2023-02-24T20:01:29.758Z,10.81
2023-02-24T20:03:58.427Z,10.79
2023-02-24T20:06:35.544Z,10.78
2023-02-24T20:09:05.901Z,10.80
2023-02-24T20:11:35.228Z,10.80
2023-02-24T20:14:01.837Z,10.80
2023-02-24T20:16:32.432Z,10.80
2023-02-24T20:18:59.907Z,10.79
2023-02-24T20:21:26.425Z,10.77
2023-02-24T20:23:53.127Z,10.75
2023-02-24T20:26:21.226Z,10.74
2023-02-24T20:28:47.848Z,10.72
2023-02-24T20:31:18.755Z,10.69
2023-02-24T20:33:46.401Z,10.66
2023-02-24T20:36:16.156Z,10.61
2023-02-24T20:38:42.560Z,10.58
2023-02-24T20:41:10.006Z,10.53
2023-02-24T20:43:36.960Z,10.49
2023-02-24T20:46:26.069Z,10.42
2023-02-24T20:48:56.135Z,10.40
2023-02-24T20:51:23.426Z,10.39
2023-02-24T20:53:57.303Z,10.38
2023-02-24T20:56:29.820Z,10.37
2023-02-24T20:59:05.380Z,10.36
2023-02-24T21:01:33.093Z,10.38
2023-02-24T21:04:00.129Z,10.37
2023-02-24T21:06:27.547Z,10.38
2023-02-24T21:08:54.150Z,10.38
2023-02-24T21:11:21.534Z,10.40
2023-02-24T21:13:50.031Z,10.40
2023-02-24T21:16:17.168Z,10.42
2023-02-24T21:18:46.215Z,10.45
2023-02-24T21:21:14.391Z,10.46
2023-02-24T21:23:42.238Z,10.44
2023-02-24T21:26:10.268Z,10.43
2023-02-24T21:28:37.481Z,10.42
2023-02-24T21:31:09.274Z,10.38
2023-02-24T21:33:35.990Z,10.36
2023-02-24T21:36:06.572Z,10.33
2023-02-24T21:38:34.393Z,10.30
2023-02-24T21:41:07.158Z,10.25
2023-02-24T21:43:33.892Z,10.22
2023-02-24T21:46:01.854Z,10.18
2023-02-24T21:48:28.529Z,10.15
2023-02-24T21:51:03.746Z,10.10
2023-02-24T21:53:33.167Z,10.09
2023-02-24T21:56:16.308Z,10.04
2023-02-24T21:59:04.164Z,10.01
2023-02-24T22:01:33.665Z,10.05
2023-02-24T22:04:02.859Z,10.05
2023-02-24T22:06:32.040Z,10.08
2023-02-24T22:09:00.392Z,10.11
2023-02-24T22:11:26.992Z,10.13
2023-02-24T22:13:53.361Z,10.15
2023-02-24T22:16:23.477Z,10.17
2023-02-24T22:18:51.582Z,10.19
2023-02-24T22:21:20.546Z,10.21
2023-02-24T22:23:48.494Z,10.24
2023-02-24T22:26:16.974Z,10.25
2023-02-24T22:28:44.126Z,10.27
2023-02-24T22:31:12.448Z,10.30
2023-02-24T22:33:40.981Z,10.31
2023-02-24T22:36:08.616Z,10.32
2023-02-24T22:38:37.032Z,10.33
2023-02-24T22:41:10.687Z,10.29
2023-02-24T22:43:37.204Z,10.27
2023-02-24T22:46:06.740Z,10.25
2023-02-24T22:48:35.056Z,10.22
2023-02-24T22:51:02.924Z,10.21
2023-02-24T22:53:31.020Z,10.20
2023-02-24T22:55:57.871Z,10.18
2023-02-24T22:58:24.920Z,10.17
2023-02-24T23:00:53.571Z,10.13
2023-02-24T23:03:25.777Z,10.11
2023-02-24T23:05:57.192Z,10.07
2023-02-24T23:08:24.358Z,10.07
2023-02-24T23:10:51.366Z,10.06
2023-02-24T23:13:18.085Z,10.07
2023-02-24T23:15:44.859Z,10.04
2023-02-24T23:18:11.685Z,10.05
2023-02-24T23:20:38.076Z,10.05
2023-02-24T23:23:04.658Z,10.07
2023-02-24T23:25:31.370Z,10.08
2023-02-24T23:27:57.824Z,10.09
2023-02-24T23:30:24.162Z,10.09
2023-02-24T23:32:50.584Z,10.11
2023-02-24T23:35:17.406Z,10.13
2023-02-24T23:37:43.744Z,10.13
2023-02-24T23:40:11.276Z,10.15
2023-02-24T23:42:38.048Z,10.16
2023-02-24T23:45:05.476Z,10.16
2023-02-24T23:47:32.028Z,10.16
2023-02-24T23:49:58.880Z,10.17
2023-02-24T23:52:25.209Z,10.16
2023-02-24T23:54:52.647Z,10.18
2023-02-24T23:57:20.455Z,10.19
2023-02-24T23:59:47.099Z,10.18
